sensor_id;sensor_type;location;lat;lon;timestamp;P1;durP1;ratioP1;P2;durP2;ratioP2
65667;SDS011;52369;52.542;13.232;2023-04-06T00:00:53;8.13;;;4.90;;
65667;SDS011;52369;52.542;13.232;2023-04-06T00:03:20;8.93;;;4.60;;
65667;SDS011;52369;52.542;13.232;2023-04-06T00:05:46;8.68;;;5.20;;
65667;SDS011;52369;52.542;13.232;2023-04-06T00:08:13;9.35;;;4.80;;
65667;SDS011;52369;52.542;13.232;2023-04-06T00:10:39;8.40;;;4.60;;
65667;SDS011;52369;52.542;13.232;2023-04-06T00:13:06;10.27;;;4.82;;
65667;SDS011;52369;52.542;13.232;2023-04-06T00:15:32;10.13;;;4.57;;
65667;SDS011;52369;52.542;13.232;2023-04-06T00:17:59;10.10;;;5.13;;
65667;SDS011;52369;52.542;13.232;2023-04-06T00:20:25;9.43;;;4.82;;
65667;SDS011;52369;52.542;13.232;2023-04-06T00:22:51;10.68;;;4.65;;
65667;SDS011;52369;52.542;13.232;2023-04-06T00:25:17;8.15;;;4.80;;
65667;SDS011;52369;52.542;13.232;2023-04-06T00:27:43;7.18;;;4.53;;
65667;SDS011;52369;52.542;13.232;2023-04-06T00:30:09;8.70;;;4.97;;
65667;SDS011;52369;52.542;13.232;2023-04-06T00:32:35;8.55;;;4.80;;
65667;SDS011;52369;52.542;13.232;2023-04-06T00:35:02;9.55;;;4.70;;
65667;SDS011;52369;52.542;13.232;2023-04-06T00:37:28;8.93;;;4.70;;
65667;SDS011;52369;52.542;13.232;2023-04-06T00:39:54;7.97;;;4.65;;
65667;SDS011;52369;52.542;13.232;2023-04-06T00:42:21;11.77;;;4.88;;
65667;SDS011;52369;52.542;13.232;2023-04-06T00:44:54;8.25;;;5.05;;
65667;SDS011;52369;52.542;13.232;2023-04-06T00:47:20;7.50;;;4.47;;
65667;SDS011;52369;52.542;13.232;2023-04-06T00:49:47;7.85;;;5.13;;
65667;SDS011;52369;52.542;13.232;2023-04-06T00:52:13;12.55;;;5.20;;
65667;SDS011;52369;52.542;13.232;2023-04-06T00:54:39;9.20;;;4.72;;
65667;SDS011;52369;52.542;13.232;2023-04-06T00:57:05;7.45;;;4.45;;
65667;SDS011;52369;52.542;13.232;2023-04-06T00:59:31;10.68;;;4.90;;
65667;SDS011;52369;52.542;13.232;2023-04-06T01:01:57;8.05;;;4.65;;
65667;SDS011;52369;52.542;13.232;2023-04-06T01:04:24;9.98;;;4.35;;
65667;SDS011;52369;52.542;13.232;2023-04-06T01:06:50;9.45;;;4.82;;
65667;SDS011;52369;52.542;13.232;2023-04-06T01:09:16;7.85;;;4.05;;
65667;SDS011;52369;52.542;13.232;2023-04-06T01:11:43;6.30;;;3.95;;
65667;SDS011;52369;52.542;13.232;2023-04-06T01:14:09;8.43;;;4.50;;
65667;SDS011;52369;52.542;13.232;2023-04-06T01:16:35;7.20;;;4.18;;
65667;SDS011;52369;52.542;13.232;2023-04-06T01:19:06;7.75;;;4.45;;
65667;SDS011;52369;52.542;13.232;2023-04-06T01:21:33;8.43;;;4.55;;
65667;SDS011;52369;52.542;13.232;2023-04-06T01:23:59;6.90;;;4.10;;
65667;SDS011;52369;52.542;13.232;2023-04-06T01:26:25;7.40;;;4.40;;
65667;SDS011;52369;52.542;13.232;2023-04-06T01:28:54;7.03;;;4.40;;
65667;SDS011;52369;52.542;13.232;2023-04-06T01:31:20;9.93;;;4.55;;
65667;SDS011;52369;52.542;13.232;2023-04-06T01:33:46;9.20;;;4.65;;
65667;SDS011;52369;52.542;13.232;2023-04-06T01:36:12;6.25;;;4.20;;
65667;SDS011;52369;52.542;13.232;2023-04-06T01:38:38;8.50;;;4.50;;
65667;SDS011;52369;52.542;13.232;2023-04-06T01:41:04;6.90;;;4.38;;
65667;SDS011;52369;52.542;13.232;2023-04-06T01:43:30;7.80;;;4.22;;
65667;SDS011;52369;52.542;13.232;2023-04-06T01:45:56;10.10;;;4.88;;
65667;SDS011;52369;52.542;13.232;2023-04-06T01:48:23;8.40;;;4.22;;
65667;SDS011;52369;52.542;13.232;2023-04-06T01:50:49;9.32;;;4.65;;
65667;SDS011;52369;52.542;13.232;2023-04-06T01:53:15;8.88;;;4.60;;
65667;SDS011;52369;52.542;13.232;2023-04-06T01:55:41;8.35;;;4.47;;
65667;SDS011;52369;52.542;13.232;2023-04-06T01:58:07;8.68;;;4.47;;
65667;SDS011;52369;52.542;13.232;2023-04-06T02:00:33;8.43;;;4.50;;
65667;SDS011;52369;52.542;13.232;2023-04-06T02:02:59;10.02;;;4.60;;
65667;SDS011;52369;52.542;13.232;2023-04-06T02:05:26;7.63;;;4.32;;
65667;SDS011;52369;52.542;13.232;2023-04-06T02:07:52;11.35;;;4.63;;
65667;SDS011;52369;52.542;13.232;2023-04-06T02:10:18;10.30;;;4.47;;
65667;SDS011;52369;52.542;13.232;2023-04-06T02:12:44;9.85;;;4.90;;
65667;SDS011;52369;52.542;13.232;2023-04-06T02:15:10;9.35;;;4.55;;
65667;SDS011;52369;52.542;13.232;2023-04-06T02:17:38;9.93;;;4.25;;
65667;SDS011;52369;52.542;13.232;2023-04-06T02:20:04;9.77;;;4.72;;
65667;SDS011;52369;52.542;13.232;2023-04-06T02:22:31;8.98;;;4.65;;
65667;SDS011;52369;52.542;13.232;2023-04-06T02:24:57;8.57;;;4.60;;
65667;SDS011;52369;52.542;13.232;2023-04-06T02:27:23;9.13;;;4.75;;
65667;SDS011;52369;52.542;13.232;2023-04-06T02:29:50;8.70;;;4.22;;
65667;SDS011;52369;52.542;13.232;2023-04-06T02:32:16;9.23;;;4.95;;
65667;SDS011;52369;52.542;13.232;2023-04-06T02:34:42;8.07;;;4.47;;
65667;SDS011;52369;52.542;13.232;2023-04-06T02:37:08;8.77;;;4.50;;
65667;SDS011;52369;52.542;13.232;2023-04-06T02:39:34;10.40;;;4.30;;
65667;SDS011;52369;52.542;13.232;2023-04-06T02:42:00;10.25;;;4.60;;
65667;SDS011;52369;52.542;13.232;2023-04-06T02:44:26;9.02;;;4.70;;
65667;SDS011;52369;52.542;13.232;2023-04-06T02:46:52;7.70;;;4.43;;
65667;SDS011;52369;52.542;13.232;2023-04-06T02:49:18;11.10;;;4.82;;
65667;SDS011;52369;52.542;13.232;2023-04-06T02:51:45;9.57;;;4.90;;
65667;SDS011;52369;52.542;13.232;2023-04-06T02:54:11;8.50;;;4.65;;
65667;SDS011;52369;52.542;13.232;2023-04-06T02:56:37;8.70;;;4.45;;
65667;SDS011;52369;52.542;13.232;2023-04-06T02:59:03;7.40;;;4.82;;
65667;SDS011;52369;52.542;13.232;2023-04-06T03:01:29;8.80;;;4.35;;
65667;SDS011;52369;52.542;13.232;2023-04-06T03:03:55;8.73;;;4.50;;
65667;SDS011;52369;52.542;13.232;2023-04-06T03:06:21;8.65;;;4.50;;
65667;SDS011;52369;52.542;13.232;2023-04-06T03:08:47;10.00;;;4.95;;
65667;SDS011;52369;52.542;13.232;2023-04-06T03:11:13;11.07;;;5.40;;
65667;SDS011;52369;52.542;13.232;2023-04-06T03:13:39;8.75;;;4.70;;
65667;SDS011;52369;52.542;13.232;2023-04-06T03:16:05;8.93;;;5.00;;
65667;SDS011;52369;52.542;13.232;2023-04-06T03:18:32;9.00;;;4.90;;
65667;SDS011;52369;52.542;13.232;2023-04-06T03:20:58;11.32;;;5.00;;
65667;SDS011;52369;52.542;13.232;2023-04-06T03:23:25;10.18;;;5.32;;
65667;SDS011;52369;52.542;13.232;2023-04-06T03:25:51;10.45;;;5.82;;
65667;SDS011;52369;52.542;13.232;2023-04-06T03:28:17;13.50;;;5.07;;
65667;SDS011;52369;52.542;13.232;2023-04-06T03:30:43;10.98;;;5.20;;
65667;SDS011;52369;52.542;13.232;2023-04-06T03:33:09;9.85;;;5.07;;
65667;SDS011;52369;52.542;13.232;2023-04-06T03:35:35;9.25;;;5.25;;
65667;SDS011;52369;52.542;13.232;2023-04-06T03:38:02;10.60;;;5.30;;
65667;SDS011;52369;52.542;13.232;2023-04-06T03:40:28;9.02;;;4.70;;
65667;SDS011;52369;52.542;13.232;2023-04-06T03:42:54;12.15;;;5.25;;
65667;SDS011;52369;52.542;13.232;2023-04-06T03:45:20;9.93;;;5.38;;
65667;SDS011;52369;52.542;13.232;2023-04-06T03:47:46;14.30;;;7.47;;
65667;SDS011;52369;52.542;13.232;2023-04-06T03:50:12;11.82;;;6.07;;
65667;SDS011;52369;52.542;13.232;2023-04-06T03:52:38;9.43;;;5.15;;
65667;SDS011;52369;52.542;13.232;2023-04-06T03:55:05;10.50;;;5.50;;
65667;SDS011;52369;52.542;13.232;2023-04-06T03:57:31;9.05;;;5.28;;
65667;SDS011;52369;52.542;13.232;2023-04-06T03:59:57;9.70;;;5.10;;
65667;SDS011;52369;52.542;13.232;2023-04-06T04:02:23;10.38;;;5.93;;
65667;SDS011;52369;52.542;13.232;2023-04-06T04:04:51;11.85;;;5.65;;
65667;SDS011;52369;52.542;13.232;2023-04-06T04:07:17;11.32;;;5.57;;
65667;SDS011;52369;52.542;13.232;2023-04-06T04:09:43;10.55;;;5.85;;
65667;SDS011;52369;52.542;13.232;2023-04-06T04:12:09;11.02;;;6.32;;
65667;SDS011;52369;52.542;13.232;2023-04-06T04:14:35;13.70;;;6.65;;
65667;SDS011;52369;52.542;13.232;2023-04-06T04:17:01;15.43;;;6.47;;
65667;SDS011;52369;52.542;13.232;2023-04-06T04:19:27;10.90;;;6.07;;
65667;SDS011;52369;52.542;13.232;2023-04-06T04:21:54;14.90;;;5.95;;
65667;SDS011;52369;52.542;13.232;2023-04-06T04:24:20;14.18;;;6.88;;
65667;SDS011;52369;52.542;13.232;2023-04-06T04:26:46;13.68;;;6.53;;
65667;SDS011;52369;52.542;13.232;2023-04-06T04:29:12;13.13;;;6.50;;
65667;SDS011;52369;52.542;13.232;2023-04-06T04:31:38;15.20;;;6.90;;
65667;SDS011;52369;52.542;13.232;2023-04-06T04:34:04;13.40;;;6.22;;
65667;SDS011;52369;52.542;13.232;2023-04-06T04:36:31;18.63;;;7.13;;
65667;SDS011;52369;52.542;13.232;2023-04-06T04:38:57;11.82;;;6.57;;
65667;SDS011;52369;52.542;13.232;2023-04-06T04:41:26;18.27;;;7.22;;
65667;SDS011;52369;52.542;13.232;2023-04-06T04:43:52;15.40;;;6.70;;
65667;SDS011;52369;52.542;13.232;2023-04-06T04:46:18;12.60;;;6.55;;
65667;SDS011;52369;52.542;13.232;2023-04-06T04:48:44;15.02;;;6.53;;
65667;SDS011;52369;52.542;13.232;2023-04-06T04:51:10;14.93;;;6.93;;
65667;SDS011;52369;52.542;13.232;2023-04-06T04:53:36;11.98;;;6.10;;
65667;SDS011;52369;52.542;13.232;2023-04-06T04:56:02;13.05;;;6.40;;
65667;SDS011;52369;52.542;13.232;2023-04-06T04:58:28;13.82;;;6.32;;
65667;SDS011;52369;52.542;13.232;2023-04-06T05:00:55;13.20;;;6.68;;
65667;SDS011;52369;52.542;13.232;2023-04-06T05:03:22;11.93;;;5.72;;
65667;SDS011;52369;52.542;13.232;2023-04-06T05:05:48;9.55;;;5.72;;
65667;SDS011;52369;52.542;13.232;2023-04-06T05:08:15;14.35;;;6.53;;
65667;SDS011;52369;52.542;13.232;2023-04-06T05:10:41;12.02;;;6.28;;
65667;SDS011;52369;52.542;13.232;2023-04-06T05:13:07;11.40;;;6.13;;
65667;SDS011;52369;52.542;13.232;2023-04-06T05:15:33;21.60;;;6.82;;
65667;SDS011;52369;52.542;13.232;2023-04-06T05:18:08;11.32;;;5.95;;
65667;SDS011;52369;52.542;13.232;2023-04-06T05:20:34;12.35;;;6.63;;
65667;SDS011;52369;52.542;13.232;2023-04-06T05:23:01;17.40;;;7.03;;
65667;SDS011;52369;52.542;13.232;2023-04-06T05:25:27;15.25;;;6.63;;
65667;SDS011;52369;52.542;13.232;2023-04-06T05:27:53;17.98;;;6.95;;
65667;SDS011;52369;52.542;13.232;2023-04-06T05:30:20;15.88;;;6.40;;
65667;SDS011;52369;52.542;13.232;2023-04-06T05:32:46;12.65;;;6.20;;
65667;SDS011;52369;52.542;13.232;2023-04-06T05:35:12;17.83;;;6.57;;
65667;SDS011;52369;52.542;13.232;2023-04-06T05:37:39;14.85;;;6.72;;
65667;SDS011;52369;52.542;13.232;2023-04-06T05:40:05;12.32;;;6.70;;
65667;SDS011;52369;52.542;13.232;2023-04-06T05:42:41;19.45;;;7.57;;
65667;SDS011;52369;52.542;13.232;2023-04-06T05:45:08;12.77;;;6.57;;
65667;SDS011;52369;52.542;13.232;2023-04-06T05:47:36;13.05;;;6.80;;
65667;SDS011;52369;52.542;13.232;2023-04-06T05:50:02;17.00;;;6.45;;
65667;SDS011;52369;52.542;13.232;2023-04-06T05:52:28;19.80;;;7.10;;
65667;SDS011;52369;52.542;13.232;2023-04-06T05:54:54;11.40;;;6.72;;
65667;SDS011;52369;52.542;13.232;2023-04-06T05:57:20;14.15;;;6.38;;
65667;SDS011;52369;52.542;13.232;2023-04-06T05:59:47;15.65;;;6.85;;
65667;SDS011;52369;52.542;13.232;2023-04-06T06:02:13;14.07;;;6.97;;
65667;SDS011;52369;52.542;13.232;2023-04-06T06:04:39;16.20;;;7.20;;
65667;SDS011;52369;52.542;13.232;2023-04-06T06:07:05;12.93;;;6.45;;
65667;SDS011;52369;52.542;13.232;2023-04-06T06:09:31;12.00;;;6.47;;
65667;SDS011;52369;52.542;13.232;2023-04-06T06:11:57;14.70;;;6.90;;
65667;SDS011;52369;52.542;13.232;2023-04-06T06:14:23;14.75;;;6.22;;
65667;SDS011;52369;52.542;13.232;2023-04-06T06:16:49;15.00;;;7.07;;
65667;SDS011;52369;52.542;13.232;2023-04-06T06:19:15;26.88;;;8.07;;
65667;SDS011;52369;52.542;13.232;2023-04-06T06:21:41;18.98;;;8.35;;
65667;SDS011;52369;52.542;13.232;2023-04-06T06:24:07;16.73;;;8.13;;
65667;SDS011;52369;52.542;13.232;2023-04-06T06:26:33;12.82;;;7.38;;
65667;SDS011;52369;52.542;13.232;2023-04-06T06:29:02;18.73;;;7.43;;
65667;SDS011;52369;52.542;13.232;2023-04-06T06:31:29;13.15;;;7.20;;
65667;SDS011;52369;52.542;13.232;2023-04-06T06:33:55;13.43;;;7.60;;
65667;SDS011;52369;52.542;13.232;2023-04-06T06:36:21;15.20;;;7.22;;
65667;SDS011;52369;52.542;13.232;2023-04-06T06:38:47;17.67;;;7.68;;
65667;SDS011;52369;52.542;13.232;2023-04-06T06:41:13;15.80;;;7.13;;
65667;SDS011;52369;52.542;13.232;2023-04-06T06:43:40;15.32;;;7.50;;
65667;SDS011;52369;52.542;13.232;2023-04-06T06:46:06;18.15;;;7.82;;
65667;SDS011;52369;52.542;13.232;2023-04-06T06:48:32;13.23;;;7.43;;
65667;SDS011;52369;52.542;13.232;2023-04-06T06:50:58;16.25;;;7.68;;
65667;SDS011;52369;52.542;13.232;2023-04-06T06:53:24;14.30;;;7.70;;
65667;SDS011;52369;52.542;13.232;2023-04-06T06:55:50;17.52;;;8.65;;
65667;SDS011;52369;52.542;13.232;2023-04-06T06:58:19;15.10;;;8.55;;
65667;SDS011;52369;52.542;13.232;2023-04-06T07:00:46;15.88;;;7.53;;
65667;SDS011;52369;52.542;13.232;2023-04-06T07:03:12;14.43;;;8.13;;
65667;SDS011;52369;52.542;13.232;2023-04-06T07:05:38;16.60;;;8.15;;
65667;SDS011;52369;52.542;13.232;2023-04-06T07:08:04;17.13;;;7.82;;
65667;SDS011;52369;52.542;13.232;2023-04-06T07:10:30;12.98;;;7.47;;
65667;SDS011;52369;52.542;13.232;2023-04-06T07:12:56;14.25;;;8.25;;
65667;SDS011;52369;52.542;13.232;2023-04-06T07:15:22;17.48;;;7.25;;
65667;SDS011;52369;52.542;13.232;2023-04-06T07:17:48;11.10;;;7.68;;
65667;SDS011;52369;52.542;13.232;2023-04-06T07:20:15;12.82;;;6.93;;
65667;SDS011;52369;52.542;13.232;2023-04-06T07:22:42;17.40;;;7.93;;
65667;SDS011;52369;52.542;13.232;2023-04-06T07:25:09;15.52;;;7.15;;
65667;SDS011;52369;52.542;13.232;2023-04-06T07:27:35;13.35;;;6.88;;
65667;SDS011;52369;52.542;13.232;2023-04-06T07:30:01;13.30;;;6.82;;
65667;SDS011;52369;52.542;13.232;2023-04-06T07:32:27;13.52;;;7.40;;
65667;SDS011;52369;52.542;13.232;2023-04-06T07:34:55;14.40;;;6.80;;
65667;SDS011;52369;52.542;13.232;2023-04-06T07:37:21;12.93;;;6.47;;
65667;SDS011;52369;52.542;13.232;2023-04-06T07:39:47;10.57;;;5.95;;
65667;SDS011;52369;52.542;13.232;2023-04-06T07:42:13;13.13;;;7.88;;
65667;SDS011;52369;52.542;13.232;2023-04-06T07:44:39;8.25;;;5.00;;
65667;SDS011;52369;52.542;13.232;2023-04-06T07:47:05;12.52;;;5.57;;
65667;SDS011;52369;52.542;13.232;2023-04-06T07:49:31;9.88;;;5.13;;
65667;SDS011;52369;52.542;13.232;2023-04-06T07:51:57;10.65;;;5.88;;
65667;SDS011;52369;52.542;13.232;2023-04-06T07:54:24;10.77;;;5.72;;
65667;SDS011;52369;52.542;13.232;2023-04-06T07:56:50;10.07;;;5.03;;
65667;SDS011;52369;52.542;13.232;2023-04-06T07:59:16;7.65;;;4.63;;
65667;SDS011;52369;52.542;13.232;2023-04-06T08:01:42;7.60;;;4.57;;
65667;SDS011;52369;52.542;13.232;2023-04-06T08:04:08;8.98;;;5.25;;
65667;SDS011;52369;52.542;13.232;2023-04-06T08:06:34;11.73;;;5.35;;
65667;SDS011;52369;52.542;13.232;2023-04-06T08:09:01;7.95;;;4.53;;
65667;SDS011;52369;52.542;13.232;2023-04-06T08:11:28;7.30;;;4.38;;
65667;SDS011;52369;52.542;13.232;2023-04-06T08:13:54;7.53;;;4.25;;
65667;SDS011;52369;52.542;13.232;2023-04-06T08:16:23;6.47;;;4.15;;
65667;SDS011;52369;52.542;13.232;2023-04-06T08:18:49;9.50;;;4.15;;
65667;SDS011;52369;52.542;13.232;2023-04-06T08:21:15;7.50;;;4.07;;
65667;SDS011;52369;52.542;13.232;2023-04-06T08:23:41;6.80;;;3.67;;
65667;SDS011;52369;52.542;13.232;2023-04-06T08:26:08;8.48;;;4.18;;
65667;SDS011;52369;52.542;13.232;2023-04-06T08:28:34;6.97;;;4.30;;
65667;SDS011;52369;52.542;13.232;2023-04-06T08:31:07;9.40;;;4.05;;
65667;SDS011;52369;52.542;13.232;2023-04-06T08:33:33;6.40;;;3.08;;
65667;SDS011;52369;52.542;13.232;2023-04-06T08:36:10;6.82;;;3.30;;
65667;SDS011;52369;52.542;13.232;2023-04-06T08:38:37;9.02;;;4.10;;
65667;SDS011;52369;52.542;13.232;2023-04-06T08:41:12;14.07;;;4.40;;
65667;SDS011;52369;52.542;13.232;2023-04-06T08:46:11;5.93;;;3.30;;
65667;SDS011;52369;52.542;13.232;2023-04-06T08:48:38;8.07;;;3.38;;
65667;SDS011;52369;52.542;13.232;2023-04-06T08:51:05;5.75;;;3.67;;
65667;SDS011;52369;52.542;13.232;2023-04-06T08:53:31;8.05;;;3.67;;
65667;SDS011;52369;52.542;13.232;2023-04-06T08:55:58;5.25;;;3.10;;
65667;SDS011;52369;52.542;13.232;2023-04-06T08:58:25;8.38;;;3.60;;
65667;SDS011;52369;52.542;13.232;2023-04-06T09:00:53;7.15;;;3.67;;
65667;SDS011;52369;52.542;13.232;2023-04-06T09:03:19;6.00;;;3.25;;
65667;SDS011;52369;52.542;13.232;2023-04-06T09:05:45;5.00;;;2.92;;
65667;SDS011;52369;52.542;13.232;2023-04-06T09:08:12;5.97;;;2.88;;
65667;SDS011;52369;52.542;13.232;2023-04-06T09:10:40;6.57;;;3.03;;
65667;SDS011;52369;52.542;13.232;2023-04-06T09:13:07;5.13;;;3.08;;
65667;SDS011;52369;52.542;13.232;2023-04-06T09:15:33;5.60;;;3.28;;
65667;SDS011;52369;52.542;13.232;2023-04-06T09:17:59;5.50;;;2.95;;
65667;SDS011;52369;52.542;13.232;2023-04-06T09:20:26;6.30;;;2.83;;
65667;SDS011;52369;52.542;13.232;2023-04-06T09:22:53;5.72;;;3.00;;
65667;SDS011;52369;52.542;13.232;2023-04-06T09:25:20;6.13;;;3.08;;
65667;SDS011;52369;52.542;13.232;2023-04-06T09:28:00;9.50;;;3.83;;
65667;SDS011;52369;52.542;13.232;2023-04-06T09:30:26;6.55;;;3.40;;
65667;SDS011;52369;52.542;13.232;2023-04-06T09:32:53;8.18;;;4.10;;
65667;SDS011;52369;52.542;13.232;2023-04-06T09:35:20;6.32;;;3.67;;
65667;SDS011;52369;52.542;13.232;2023-04-06T09:37:46;7.75;;;3.60;;
65667;SDS011;52369;52.542;13.232;2023-04-06T09:40:13;5.28;;;3.00;;
65667;SDS011;52369;52.542;13.232;2023-04-06T09:42:42;8.40;;;3.60;;
65667;SDS011;52369;52.542;13.232;2023-04-06T09:45:08;5.47;;;3.65;;
65667;SDS011;52369;52.542;13.232;2023-04-06T09:47:36;6.65;;;3.70;;
65667;SDS011;52369;52.542;13.232;2023-04-06T09:50:02;5.55;;;3.90;;
65667;SDS011;52369;52.542;13.232;2023-04-06T09:52:32;4.85;;;3.25;;
65667;SDS011;52369;52.542;13.232;2023-04-06T09:55:03;5.47;;;2.90;;
65667;SDS011;52369;52.542;13.232;2023-04-06T09:57:35;6.38;;;3.50;;
65667;SDS011;52369;52.542;13.232;2023-04-06T10:08:00;6.00;;;2.97;;
65667;SDS011;52369;52.542;13.232;2023-04-06T10:10:28;4.32;;;2.90;;
65667;SDS011;52369;52.542;13.232;2023-04-06T10:12:54;4.57;;;2.90;;
65667;SDS011;52369;52.542;13.232;2023-04-06T10:15:21;7.47;;;3.17;;
65667;SDS011;52369;52.542;13.232;2023-04-06T10:17:47;6.32;;;2.88;;
65667;SDS011;52369;52.542;13.232;2023-04-06T10:22:45;4.93;;;2.95;;
65667;SDS011;52369;52.542;13.232;2023-04-06T10:25:25;6.93;;;3.58;;
65667;SDS011;52369;52.542;13.232;2023-04-06T10:27:58;27.95;;;11.93;;
65667;SDS011;52369;52.542;13.232;2023-04-06T10:30:24;11.77;;;3.20;;
65667;SDS011;52369;52.542;13.232;2023-04-06T10:32:51;7.88;;;3.30;;
65667;SDS011;52369;52.542;13.232;2023-04-06T10:35:17;8.20;;;3.67;;
65667;SDS011;52369;52.542;13.232;2023-04-06T10:37:46;5.18;;;2.83;;
65667;SDS011;52369;52.542;13.232;2023-04-06T10:43:09;5.30;;;2.97;;
65667;SDS011;52369;52.542;13.232;2023-04-06T10:45:35;5.13;;;3.28;;
65667;SDS011;52369;52.542;13.232;2023-04-06T10:48:23;5.63;;;3.10;;
65667;SDS011;52369;52.542;13.232;2023-04-06T10:50:50;8.25;;;3.40;;
65667;SDS011;52369;52.542;13.232;2023-04-06T10:53:23;6.88;;;3.50;;
65667;SDS011;52369;52.542;13.232;2023-04-06T10:55:54;11.07;;;4.38;;
65667;SDS011;52369;52.542;13.232;2023-04-06T10:58:24;7.68;;;3.08;;
65667;SDS011;52369;52.542;13.232;2023-04-06T11:00:50;10.30;;;5.05;;
65667;SDS011;52369;52.542;13.232;2023-04-06T11:03:17;5.97;;;3.40;;
65667;SDS011;52369;52.542;13.232;2023-04-06T11:05:47;10.55;;;4.35;;
65667;SDS011;52369;52.542;13.232;2023-04-06T11:08:24;7.20;;;3.65;;
65667;SDS011;52369;52.542;13.232;2023-04-06T11:10:50;4.32;;;3.10;;
65667;SDS011;52369;52.542;13.232;2023-04-06T11:13:16;9.00;;;3.90;;
65667;SDS011;52369;52.542;13.232;2023-04-06T11:15:42;4.82;;;3.25;;
65667;SDS011;52369;52.542;13.232;2023-04-06T11:18:09;5.07;;;3.45;;
65667;SDS011;52369;52.542;13.232;2023-04-06T11:20:36;11.27;;;4.10;;
65667;SDS011;52369;52.542;13.232;2023-04-06T11:23:02;17.00;;;7.25;;
65667;SDS011;52369;52.542;13.232;2023-04-06T11:25:28;4.97;;;3.63;;
65667;SDS011;52369;52.542;13.232;2023-04-06T11:27:57;10.70;;;5.15;;
65667;SDS011;52369;52.542;13.232;2023-04-06T11:30:23;7.70;;;3.33;;
65667;SDS011;52369;52.542;13.232;2023-04-06T11:32:49;7.45;;;3.67;;
65667;SDS011;52369;52.542;13.232;2023-04-06T11:35:19;6.43;;;3.83;;
65667;SDS011;52369;52.542;13.232;2023-04-06T11:37:45;6.53;;;3.53;;
65667;SDS011;52369;52.542;13.232;2023-04-06T11:40:11;4.53;;;3.47;;
65667;SDS011;52369;52.542;13.232;2023-04-06T11:42:37;7.88;;;3.80;;
65667;SDS011;52369;52.542;13.232;2023-04-06T11:45:03;5.95;;;3.70;;
65667;SDS011;52369;52.542;13.232;2023-04-06T11:47:36;5.65;;;3.53;;
65667;SDS011;52369;52.542;13.232;2023-04-06T11:50:06;6.00;;;3.65;;
65667;SDS011;52369;52.542;13.232;2023-04-06T11:52:32;5.65;;;3.55;;
65667;SDS011;52369;52.542;13.232;2023-04-06T11:54:58;6.28;;;4.03;;
65667;SDS011;52369;52.542;13.232;2023-04-06T11:57:35;5.60;;;3.85;;
65667;SDS011;52369;52.542;13.232;2023-04-06T12:00:01;6.25;;;3.75;;
65667;SDS011;52369;52.542;13.232;2023-04-06T12:02:27;9.05;;;4.00;;
65667;SDS011;52369;52.542;13.232;2023-04-06T12:04:54;6.45;;;4.00;;
65667;SDS011;52369;52.542;13.232;2023-04-06T12:07:20;5.68;;;3.70;;
65667;SDS011;52369;52.542;13.232;2023-04-06T12:09:46;11.05;;;4.65;;
65667;SDS011;52369;52.542;13.232;2023-04-06T12:12:12;7.95;;;3.67;;
65667;SDS011;52369;52.542;13.232;2023-04-06T12:14:38;6.68;;;3.90;;
65667;SDS011;52369;52.542;13.232;2023-04-06T12:17:04;6.63;;;3.50;;
65667;SDS011;52369;52.542;13.232;2023-04-06T12:19:30;6.95;;;3.70;;
65667;SDS011;52369;52.542;13.232;2023-04-06T12:21:56;6.85;;;3.65;;
65667;SDS011;52369;52.542;13.232;2023-04-06T12:24:23;6.20;;;3.90;;
65667;SDS011;52369;52.542;13.232;2023-04-06T12:26:49;6.43;;;3.78;;
65667;SDS011;52369;52.542;13.232;2023-04-06T12:29:15;8.35;;;3.90;;
65667;SDS011;52369;52.542;13.232;2023-04-06T12:31:41;6.10;;;3.63;;
65667;SDS011;52369;52.542;13.232;2023-04-06T12:34:09;6.70;;;3.97;;
65667;SDS011;52369;52.542;13.232;2023-04-06T12:36:36;5.70;;;3.65;;
65667;SDS011;52369;52.542;13.232;2023-04-06T12:39:02;6.13;;;3.90;;
65667;SDS011;52369;52.542;13.232;2023-04-06T12:41:28;6.00;;;3.90;;
65667;SDS011;52369;52.542;13.232;2023-04-06T12:43:55;7.38;;;3.95;;
65667;SDS011;52369;52.542;13.232;2023-04-06T12:46:21;6.15;;;4.05;;
65667;SDS011;52369;52.542;13.232;2023-04-06T12:48:47;5.55;;;3.60;;
65667;SDS011;52369;52.542;13.232;2023-04-06T12:51:14;9.43;;;4.43;;
65667;SDS011;52369;52.542;13.232;2023-04-06T12:53:42;6.28;;;3.88;;
65667;SDS011;52369;52.542;13.232;2023-04-06T12:56:15;6.53;;;3.67;;
65667;SDS011;52369;52.542;13.232;2023-04-06T12:58:42;11.10;;;4.10;;
65667;SDS011;52369;52.542;13.232;2023-04-06T13:01:08;6.35;;;3.50;;
65667;SDS011;52369;52.542;13.232;2023-04-06T13:03:35;5.45;;;3.90;;
65667;SDS011;52369;52.542;13.232;2023-04-06T13:06:01;7.38;;;4.18;;
65667;SDS011;52369;52.542;13.232;2023-04-06T13:08:28;5.90;;;3.72;;
65667;SDS011;52369;52.542;13.232;2023-04-06T13:10:54;4.22;;;3.28;;
65667;SDS011;52369;52.542;13.232;2023-04-06T13:13:22;12.75;;;5.63;;
65667;SDS011;52369;52.542;13.232;2023-04-06T13:15:48;4.97;;;3.50;;
65667;SDS011;52369;52.542;13.232;2023-04-06T13:18:15;5.85;;;4.20;;
65667;SDS011;52369;52.542;13.232;2023-04-06T13:20:41;6.97;;;3.60;;
65667;SDS011;52369;52.542;13.232;2023-04-06T13:23:07;5.35;;;3.67;;
65667;SDS011;52369;52.542;13.232;2023-04-06T13:25:34;5.95;;;4.03;;
65667;SDS011;52369;52.542;13.232;2023-04-06T13:28:00;4.75;;;3.72;;
65667;SDS011;52369;52.542;13.232;2023-04-06T13:30:26;7.13;;;4.25;;
65667;SDS011;52369;52.542;13.232;2023-04-06T13:32:52;5.68;;;3.70;;
65667;SDS011;52369;52.542;13.232;2023-04-06T13:35:18;6.88;;;3.58;;
65667;SDS011;52369;52.542;13.232;2023-04-06T13:37:45;7.65;;;4.03;;
65667;SDS011;52369;52.542;13.232;2023-04-06T13:40:11;5.57;;;3.83;;
65667;SDS011;52369;52.542;13.232;2023-04-06T13:42:37;6.20;;;3.80;;
65667;SDS011;52369;52.542;13.232;2023-04-06T13:45:05;5.93;;;4.03;;
65667;SDS011;52369;52.542;13.232;2023-04-06T13:47:32;7.05;;;4.18;;
65667;SDS011;52369;52.542;13.232;2023-04-06T13:49:58;6.35;;;3.95;;
65667;SDS011;52369;52.542;13.232;2023-04-06T13:52:24;6.13;;;4.03;;
65667;SDS011;52369;52.542;13.232;2023-04-06T13:54:50;6.43;;;4.43;;
65667;SDS011;52369;52.542;13.232;2023-04-06T13:57:16;8.02;;;4.30;;
65667;SDS011;52369;52.542;13.232;2023-04-06T13:59:42;7.00;;;4.00;;
65667;SDS011;52369;52.542;13.232;2023-04-06T14:02:09;8.95;;;4.82;;
65667;SDS011;52369;52.542;13.232;2023-04-06T14:04:36;8.30;;;4.10;;
65667;SDS011;52369;52.542;13.232;2023-04-06T14:07:02;6.57;;;4.32;;
65667;SDS011;52369;52.542;13.232;2023-04-06T14:09:32;12.02;;;5.15;;
65667;SDS011;52369;52.542;13.232;2023-04-06T14:11:58;9.00;;;4.55;;
65667;SDS011;52369;52.542;13.232;2023-04-06T14:14:24;4.88;;;3.72;;
65667;SDS011;52369;52.542;13.232;2023-04-06T14:16:51;6.20;;;4.18;;
65667;SDS011;52369;52.542;13.232;2023-04-06T14:19:17;7.05;;;4.47;;
65667;SDS011;52369;52.542;13.232;2023-04-06T14:21:50;6.72;;;4.60;;
65667;SDS011;52369;52.542;13.232;2023-04-06T14:24:17;8.68;;;4.40;;
65667;SDS011;52369;52.542;13.232;2023-04-06T14:26:43;6.28;;;4.15;;
65667;SDS011;52369;52.542;13.232;2023-04-06T14:29:10;8.07;;;4.47;;
65667;SDS011;52369;52.542;13.232;2023-04-06T14:31:36;6.90;;;4.22;;
65667;SDS011;52369;52.542;13.232;2023-04-06T14:34:02;7.40;;;4.18;;
65667;SDS011;52369;52.542;13.232;2023-04-06T14:36:31;8.70;;;4.40;;
65667;SDS011;52369;52.542;13.232;2023-04-06T14:39:05;8.20;;;4.40;;
65667;SDS011;52369;52.542;13.232;2023-04-06T14:41:32;6.78;;;4.35;;